createdAt,value
2023-01-27T06:10:02.863Z,-2.60
2023-01-27T06:13:33.698Z,-2.63
2023-01-27T06:17:06.588Z,-2.73
2023-01-27T06:20:31.279Z,-2.73
2023-01-27T06:23:46.083Z,-2.68
2023-01-27T06:27:13.437Z,-2.62
2023-01-27T06:30:55.286Z,-2.58
2023-01-27T06:38:00.869Z,-2.65
2023-01-27T06:41:18.531Z,-2.65
2023-01-27T06:44:23.096Z,-2.68
2023-01-27T06:47:40.483Z,-2.62
2023-01-27T06:51:03.284Z,-2.61
2023-01-27T06:54:41.354Z,-2.53
2023-01-27T06:58:31.020Z,-2.54
2023-01-27T07:01:59.714Z,-2.50
2023-01-27T07:05:14.320Z,-2.51
2023-01-27T07:08:25.879Z,-2.52
2023-01-27T07:11:47.579Z,-2.52
2023-01-27T07:15:04.303Z,-2.46
2023-01-27T07:18:26.340Z,-2.44
2023-01-27T07:21:47.516Z,-2.43
2023-01-27T07:25:29.265Z,-2.43
2023-01-27T07:32:28.533Z,-2.29
2023-01-27T07:36:12.884Z,-2.23
2023-01-27T07:39:29.749Z,-2.15
2023-01-27T07:43:01.369Z,-2.07
2023-01-27T07:46:49.821Z,-1.96
2023-01-27T07:50:09.659Z,-1.86
2023-01-27T08:10:04.575Z,-1.08
2023-01-27T08:13:46.502Z,-1.04
2023-01-27T08:37:37.493Z,-0.65
2023-01-27T08:41:23.970Z,-0.58
2023-01-27T08:52:18.723Z,-0.30
2023-01-27T08:55:58.785Z,-0.18
2023-01-27T08:59:19.132Z,-0.03
2023-01-27T09:02:46.697Z,0.17
2023-01-27T09:06:16.673Z,0.28
2023-01-27T09:09:33.185Z,0.37
2023-01-27T09:13:08.955Z,0.51
2023-01-27T09:16:39.240Z,0.66
2023-01-27T09:23:32.234Z,1.01
2023-01-27T09:26:51.676Z,1.02
2023-01-27T09:36:43.452Z,1.32
2023-01-27T09:40:11.667Z,1.40
2023-01-27T09:44:04.204Z,1.50
2023-01-27T09:52:09.593Z,1.73
2023-01-27T09:59:33.288Z,1.87
2023-01-27T10:07:02.242Z,1.94
2023-01-27T10:10:45.708Z,2.12
2023-01-27T10:14:30.838Z,2.22
2023-01-27T10:18:32.919Z,2.28
2023-01-27T10:22:17.126Z,2.36
2023-01-27T10:26:13.909Z,2.46
2023-01-27T10:29:43.218Z,2.57
2023-01-27T10:33:17.539Z,2.74
2023-01-27T10:36:52.385Z,2.94
2023-01-27T10:40:19.507Z,3.12
2023-01-27T10:44:06.960Z,3.24
2023-01-27T10:47:30.192Z,3.17
2023-01-27T10:51:00.839Z,3.23
2023-01-27T10:55:01.465Z,3.30
2023-01-27T10:58:35.883Z,3.31
2023-01-27T11:02:00.340Z,3.34
2023-01-27T11:09:08.180Z,3.48
2023-01-27T11:12:40.654Z,3.61
2023-01-27T11:15:55.738Z,3.74
2023-01-27T11:19:21.243Z,3.78
2023-01-27T11:22:40.355Z,3.91
2023-01-27T11:26:43.596Z,3.97
2023-01-27T11:30:13.873Z,4.04
2023-01-27T11:34:00.324Z,4.13
2023-01-27T11:37:15.408Z,4.11
2023-01-27T11:41:14.891Z,4.12
2023-01-27T11:44:48.305Z,4.20
2023-01-27T11:48:34.508Z,4.28
2023-01-27T11:52:54.844Z,4.34
2023-01-27T11:56:48.868Z,4.44
2023-01-27T12:00:36.538Z,4.55
2023-01-27T12:04:14.243Z,4.49
2023-01-27T12:22:38.654Z,4.98
2023-01-27T12:30:09.952Z,5.16
2023-01-27T12:33:39.502Z,5.18
2023-01-27T12:37:07.015Z,5.22
